Time;durP1;ratioP1;P1;durP2;ratioP2;P2;SDS_P1;SDS_P2;PMS_P1;PMS_P2;Temp;Humidity;BMP_temperature;BMP_pressure;BME280_temperature;BME280_humidity;BME280_pressure;Samples;Min_cycle;Max_cycle;Signal;HPM_P1;HPM_P2
2023/05/26 00:02:19;;;;;;;;;;;;;;;20.26;71.46;100837.69;7400532;19;1551;-44
2023/05/26 00:04:47;;;;;;;;;;;;;;;20.23;71.73;100832.63;7400552;19;1815;-44
2023/05/26 00:07:16;;;;;;;;;;;;;;;20.23;71.66;100832.63;7400853;19;1334;-44
2023/05/26 00:09:44;;;;;;;;;;;;;;;20.23;72.08;100831.75;7398386;19;1975;-44
2023/05/26 00:12:12;;;;;;;;;;;;;;;20.27;71.46;100863.59;7399753;19;1939;-44
2023/05/26 00:14:41;;;;;;;;;;;;;;;20.32;71.64;100838.13;7399357;19;1975;-44
2023/05/26 00:17:12;;;;;;;;;;;;;;;20.28;71.85;100845.63;7396900;19;1858;-44
2023/05/26 00:19:40;;;;;;;;;;;;;;;20.25;71.50;100836.03;7399943;19;1416;-44
2023/05/26 00:22:09;;;;;;;;;;;;;;;20.19;72.06;100847.34;7398535;19;1326;-44
2023/05/26 00:24:37;;;;;;;;;;;;;;;20.16;72.31;100846.75;7398897;19;1582;-44
2023/05/26 00:27:06;;;;;;;;;;;;;;;20.18;71.94;100845.63;7399093;19;1546;-44
2023/05/26 00:29:35;;;;;;;;;;;;;;;20.21;72.15;100866.84;7398223;19;1898;-45
2023/05/26 00:32:03;;;;;;;;;;;;;;;20.21;71.83;100860.59;7398996;19;1734;-44
2023/05/26 00:34:35;;;;;;;;;;;;;;;20.23;72.10;100842.50;7399177;19;1657;-44
2023/05/26 00:37:03;;;;;;;;;;;;;;;20.27;71.71;100838.53;7397616;19;1853;-44
2023/05/26 00:39:32;;;;;;;;;;;;;;;20.18;72.05;100842.94;7398964;19;1950;-44
2023/05/26 00:42:01;;;;;;;;;;;;;;;20.21;72.05;100856.09;7394976;19;1900;-65
2023/05/26 00:44:29;;;;;;;;;;;;;;;20.29;71.63;100854.53;7398905;19;1538;-44
2023/05/26 00:46:58;;;;;;;;;;;;;;;20.31;71.15;100857.91;7398134;19;1705;-45
2023/05/26 00:49:26;;;;;;;;;;;;;;;20.30;70.85;100853.56;7398698;19;1448;-44
2023/05/26 00:51:57;;;;;;;;;;;;;;;20.69;70.36;100837.41;7397743;19;1365;-44
2023/05/26 00:54:25;;;;;;;;;;;;;;;20.71;70.25;100828.22;7397547;19;1555;-45
2023/05/26 00:56:54;;;;;;;;;;;;;;;20.32;71.19;100846.19;7399415;19;1850;-44
2023/05/26 00:59:23;;;;;;;;;;;;;;;20.29;71.66;100841.09;7398588;19;1879;-44
2023/05/26 01:01:52;;;;;;;;;;;;;;;20.24;71.91;100850.44;7399270;19;1453;-44
2023/05/26 01:04:21;;;;;;;;;;;;;;;20.24;71.86;100855.78;7399751;19;1922;-44
2023/05/26 01:06:50;;;;;;;;;;;;;;;20.27;71.90;100844.78;7398935;19;1828;-44
2023/05/26 01:09:22;;;;;;;;;;;;;;;20.34;71.68;100854.97;7397330;19;1493;-44
2023/05/26 01:11:53;;;;;;;;;;;;;;;20.43;71.01;100837.97;7399718;19;1810;-44
2023/05/26 01:14:25;;;;;;;;;;;;;;;20.36;71.32;100840.38;7397524;19;1377;-44
2023/05/26 01:16:59;;;;;;;;;;;;;;;20.37;70.99;100852.84;7396298;19;1850;-44
2023/05/26 01:19:47;;;;;;;;;;;;;;;20.35;71.31;100859.31;7395707;19;1551;-44
2023/05/26 01:22:21;;;;;;;;;;;;;;;20.27;71.67;100855.53;7397001;19;1437;-44
2023/05/26 01:24:57;;;;;;;;;;;;;;;20.29;71.23;100857.22;7396887;19;1452;-44
2023/05/26 01:27:34;;;;;;;;;;;;;;;20.32;71.26;100865.00;7397823;19;937;-44
2023/05/26 01:30:05;;;;;;;;;;;;;;;20.26;71.48;100861.88;7397618;19;1843;-44
2023/05/26 01:32:33;;;;;;;;;;;;;;;20.26;71.85;100869.94;7397558;19;1849;-44
2023/05/26 01:35:02;;;;;;;;;;;;;;;20.22;71.82;100863.16;7396908;19;1583;-44
2023/05/26 01:37:30;;;;;;;;;;;;;;;20.21;71.58;100880.25;7396197;19;1854;-44
2023/05/26 01:39:58;;;;;;;;;;;;;;;20.33;71.36;100853.25;7397360;19;1027;-44
2023/05/26 01:42:30;;;;;;;;;;;;;;;20.26;71.29;100861.03;7397019;19;1511;-44
2023/05/26 01:45:00;;;;;;;;;;;;;;;20.32;71.22;100854.25;7397002;19;1524;-44
2023/05/26 01:47:33;;;;;;;;;;;;;;;20.24;71.26;100863.84;7396191;19;1872;-45
2023/05/26 01:50:04;;;;;;;;;;;;;;;20.23;71.81;100851.44;7396585;19;1833;-44
2023/05/26 01:52:32;;;;;;;;;;;;;;;20.23;71.63;100851.44;7397554;19;1749;-44
2023/05/26 01:55:03;;;;;;;;;;;;;;;20.18;71.86;100851.00;7402132;19;1784;-45
2023/05/26 01:57:32;;;;;;;;;;;;;;;20.21;71.83;100845.34;7403070;19;1938;-44
2023/05/26 02:00:00;;;;;;;;;;;;;;;20.22;71.76;100851.56;7404643;19;1860;-44
2023/05/26 02:02:31;;;;;;;;;;;;;;;20.26;71.45;100848.44;7400493;19;1853;-44
2023/05/26 02:04:59;;;;;;;;;;;;;;;20.34;71.07;100854.97;7404818;19;1493;-44
2023/05/26 02:07:29;;;;;;;;;;;;;;;20.29;71.41;100854.53;7403804;19;988;-44
2023/05/26 02:09:57;;;;;;;;;;;;;;;20.23;71.23;100859.50;7401200;19;1797;-44
2023/05/26 02:12:25;;;;;;;;;;;;;;;20.35;71.06;100878.13;7404743;19;1665;-45
2023/05/26 02:14:53;;;;;;;;;;;;;;;20.30;71.22;100858.91;7403883;19;1753;-44
2023/05/26 02:17:23;;;;;;;;;;;;;;;20.26;71.51;100843.06;7402308;19;1858;-44
2023/05/26 02:19:54;;;;;;;;;;;;;;;20.31;71.35;100856.06;7402754;19;1444;-44
2023/05/26 02:22:23;;;;;;;;;;;;;;;20.29;71.02;100857.22;7403246;19;1786;-48
2023/05/26 02:24:51;;;;;;;;;;;;;;;20.26;71.13;100861.03;7399222;19;1322;-44
2023/05/26 02:27:19;;;;;;;;;;;;;;;20.24;71.28;100847.75;7404514;19;1061;-44
2023/05/26 02:29:48;;;;;;;;;;;;;;;20.26;71.13;100842.25;7403796;19;1923;-44
2023/05/26 02:32:16;;;;;;;;;;;;;;;20.22;71.68;100847.03;7403281;19;1836;-44
2023/05/26 02:34:45;;;;;;;;;;;;;;;20.27;71.31;100844.78;7402453;19;1694;-44
2023/05/26 02:37:17;;;;;;;;;;;;;;;20.24;71.30;100842.38;7401099;19;1855;-44
2023/05/26 02:39:45;;;;;;;;;;;;;;;20.18;71.05;100847.47;7403111;19;1737;-44
2023/05/26 02:42:13;;;;;;;;;;;;;;;20.17;71.48;100827.81;7403268;19;1682;-44
2023/05/26 02:44:42;;;;;;;;;;;;;;;20.23;71.29;100838.00;7402651;19;1698;-44
2023/05/26 02:47:10;;;;;;;;;;;;;;;20.20;71.53;100840.97;7402721;19;1681;-44
2023/05/26 02:49:38;;;;;;;;;;;;;;;20.22;71.43;100838.97;7403607;19;1429;-44
2023/05/26 02:52:07;;;;;;;;;;;;;;;20.20;71.33;100837.44;7404452;19;1015;-44
2023/05/26 02:54:38;;;;;;;;;;;;;;;20.16;71.32;100830.66;7402598;19;1778;-44
2023/05/26 02:57:06;;;;;;;;;;;;;;;20.15;71.84;100835.16;7401447;19;1860;-44
2023/05/26 02:59:34;;;;;;;;;;;;;;;20.18;71.36;100845.63;7402032;19;1948;-44
2023/05/26 03:02:03;;;;;;;;;;;;;;;20.14;71.52;100844.22;7403043;19;1002;-44
2023/05/26 03:04:31;;;;;;;;;;;;;;;20.17;71.27;100860.03;7401884;19;1271;-45
2023/05/26 03:06:59;;;;;;;;;;;;;;;20.21;71.54;100866.84;7401866;19;1828;-44
2023/05/26 03:09:27;;;;;;;;;;;;;;;20.23;71.56;100850.56;7400188;19;1512;-44
2023/05/26 03:11:58;;;;;;;;;;;;;;;20.23;71.44;100856.81;7402087;19;1563;-44
2023/05/26 03:14:27;;;;;;;;;;;;;;;20.22;71.45;100855.09;7402796;19;1738;-44
2023/05/26 03:16:56;;;;;;;;;;;;;;;20.26;71.14;100840.38;7400898;19;1844;-44
2023/05/26 03:19:24;;;;;;;;;;;;;;;20.29;70.88;100857.22;7401477;19;1797;-44
2023/05/26 03:21:55;;;;;;;;;;;;;;;20.30;71.09;100849.00;7401516;19;1808;-44
2023/05/26 03:24:23;;;;;;;;;;;;;;;20.29;71.04;100847.31;7400987;19;1722;-44
2023/05/26 03:26:52;;;;;;;;;;;;;;;20.29;70.97;100843.78;7402578;19;1427;-44
2023/05/26 03:29:23;;;;;;;;;;;;;;;20.21;71.09;100840.00;7400979;19;1539;-44
2023/05/26 03:31:51;;;;;;;;;;;;;;;20.24;71.15;100842.38;7401473;19;1480;-44
2023/05/26 03:34:21;;;;;;;;;;;;;;;20.23;71.57;100846.06;7399657;19;1432;-44
2023/05/26 03:36:49;;;;;;;;;;;;;;;20.19;71.18;100857.22;7401264;19;1054;-44
2023/05/26 03:39:18;;;;;;;;;;;;;;;20.23;71.16;100850.56;7398142;19;1938;-44
2023/05/26 03:41:46;;;;;;;;;;;;;;;20.24;71.55;100863.84;7400779;19;1503;-44
2023/05/26 03:44:18;;;;;;;;;;;;;;;20.17;71.67;100869.94;7400887;19;1785;-44
2023/05/26 03:46:49;;;;;;;;;;;;;;;20.20;71.28;100866.97;7400782;19;1710;-44
2023/05/26 03:49:18;;;;;;;;;;;;;;;20.16;71.60;100865.56;7399186;19;1553;-44
2023/05/26 03:51:46;;;;;;;;;;;;;;;20.14;71.72;100873.75;7398885;19;1788;-44
2023/05/26 03:54:14;;;;;;;;;;;;;;;20.14;71.72;100887.16;7401337;19;1724;-44
2023/05/26 03:56:42;;;;;;;;;;;;;;;20.10;71.61;100885.75;7400720;19;1176;-44
2023/05/26 03:59:11;;;;;;;;;;;;;;;20.07;71.66;100891.38;7398282;19;1849;-44
2023/05/26 04:01:39;;;;;;;;;;;;;;;20.10;71.50;100890.28;7400826;19;1288;-44
2023/05/26 04:04:10;;;;;;;;;;;;;;;20.14;71.39;100889.00;7399075;19;1526;-44
2023/05/26 04:06:38;;;;;;;;;;;;;;;20.15;71.22;100886.16;7399397;19;1491;-44
2023/05/26 04:09:07;;;;;;;;;;;;;;;20.19;71.88;100884.06;7398065;19;1437;-44
2023/05/26 04:11:35;;;;;;;;;;;;;;;20.21;71.29;100891.00;7399449;19;1368;-44
2023/05/26 04:14:06;;;;;;;;;;;;;;;20.18;71.77;100877.84;7399798;19;1812;-44
2023/05/26 04:16:34;;;;;;;;;;;;;;;20.20;71.21;100886.59;7395016;19;1381;-44
2023/05/26 04:19:03;;;;;;;;;;;;;;;20.20;71.19;100891.13;7396435;19;1851;-44
2023/05/26 04:21:33;;;;;;;;;;;;;;;20.19;71.36;100874.19;7399849;19;1514;-44
2023/05/26 04:24:02;;;;;;;;;;;;;;;20.17;71.41;100884.19;7399346;19;1812;-47
2023/05/26 04:26:33;;;;;;;;;;;;;;;20.14;71.52;100881.81;7399164;19;1377;-44
2023/05/26 04:29:01;;;;;;;;;;;;;;;20.12;71.69;100875.72;7398364;19;1524;-44
2023/05/26 04:31:31;;;;;;;;;;;;;;;20.11;72.13;100882.06;7397967;19;1468;-44
2023/05/26 04:34:00;;;;;;;;;;;;;;;20.11;71.70;100887.44;7398322;19;1505;-44
2023/05/26 04:36:29;;;;;;;;;;;;;;;20.34;70.76;100893.41;7400584;19;1341;-44
2023/05/26 04:39:01;;;;;;;;;;;;;;;20.50;70.82;100882.09;7396283;19;1847;-44
2023/05/26 04:41:29;;;;;;;;;;;;;;;20.44;71.69;100907.66;7398792;19;1744;-44
2023/05/26 04:43:58;;;;;;;;;;;;;;;20.26;71.67;100902.16;7396204;19;1417;-44
2023/05/26 04:46:28;;;;;;;;;;;;;;;20.26;71.56;100906.69;7397657;19;1799;-44
2023/05/26 04:48:57;;;;;;;;;;;;;;;20.32;71.19;100914.19;7397774;19;1496;-44
2023/05/26 04:51:26;;;;;;;;;;;;;;;20.35;71.52;100905.84;7398468;19;1198;-45
2023/05/26 04:53:54;;;;;;;;;;;;;;;20.27;71.32;100911.91;7398363;19;1610;-45
2023/05/26 04:56:26;;;;;;;;;;;;;;;20.39;71.31;100917.13;7399278;19;1252;-44
2023/05/26 04:58:55;;;;;;;;;;;;;;;20.26;71.40;100902.16;7396834;19;1859;-44
2023/05/26 05:01:24;;;;;;;;;;;;;;;20.21;71.45;100908.94;7398582;19;1153;-44
2023/05/26 05:03:52;;;;;;;;;;;;;;;20.32;71.72;100916.88;7398486;19;1217;-44
2023/05/26 05:06:20;;;;;;;;;;;;;;;20.33;71.18;100920.38;7397494;19;1265;-44
2023/05/26 05:08:49;;;;;;;;;;;;;;;20.31;71.46;100935.78;7395600;19;1706;-44
2023/05/26 05:11:17;;;;;;;;;;;;;;;20.42;71.34;100927.63;7397061;19;1724;-44
2023/05/26 05:13:48;;;;;;;;;;;;;;;20.45;71.14;100938.94;7397694;19;1705;-44
2023/05/26 05:16:19;;;;;;;;;;;;;;;20.73;70.04;100938.22;7395490;19;1486;-44
2023/05/26 05:18:47;;;;;;;;;;;;;;;20.91;69.52;100931.16;7396042;19;1854;-44
2023/05/26 05:21:16;;;;;;;;;;;;;;;20.80;70.26;100929.44;7396764;19;1333;-45
2023/05/26 05:23:45;;;;;;;;;;;;;;;21.03;69.64;100932.69;7396829;19;1328;-45
2023/05/26 05:26:13;;;;;;;;;;;;;;;21.12;70.18;100927.41;7397949;19;1834;-44
2023/05/26 05:28:42;;;;;;;;;;;;;;;21.07;69.81;100911.72;7395607;19;1519;-45
2023/05/26 05:31:12;;;;;;;;;;;;;;;20.99;70.04;100925.91;7396871;19;1558;-45
2023/05/26 05:33:42;;;;;;;;;;;;;;;20.81;70.38;100938.34;7396552;19;1290;-45
2023/05/26 05:36:11;;;;;;;;;;;;;;;20.79;70.95;100929.59;7396610;19;1424;-45
2023/05/26 05:38:39;;;;;;;;;;;;;;;20.98;70.28;100937.63;7394378;19;1860;-45
2023/05/26 05:41:08;;;;;;;;;;;;;;;20.96;70.07;100928.88;7390474;19;1147;-45
2023/05/26 05:43:36;;;;;;;;;;;;;;;20.82;70.69;100940.91;7390231;19;1812;-46
2023/05/26 05:46:04;;;;;;;;;;;;;;;20.93;70.52;100945.31;7391802;19;1563;-45
2023/05/26 05:48:35;;;;;;;;;;;;;;;20.86;70.47;100936.09;7393656;19;1202;-45
2023/05/26 05:51:03;;;;;;;;;;;;;;;20.73;71.14;100946.28;7391101;19;2165;-45
2023/05/26 05:53:31;;;;;;;;;;;;;;;20.63;71.42;100939.09;7392523;19;1216;-45
2023/05/26 05:56:00;;;;;;;;;;;;;;;20.74;71.50;100927.34;7396479;19;1266;-44
2023/05/26 05:58:28;;;;;;;;;;;;;;;20.98;70.56;100950.25;7395914;19;1865;-45
2023/05/26 06:00:56;;;;;;;;;;;;;;;21.33;69.81;100930.75;7396755;19;1089;-45
2023/05/26 06:03:24;;;;;;;;;;;;;;;21.36;69.70;100933.13;7395412;19;1286;-46
2023/05/26 06:05:56;;;;;;;;;;;;;;;21.10;70.21;100924.03;7393663;19;1219;-47
2023/05/26 06:08:24;;;;;;;;;;;;;;;20.97;70.57;100933.25;7390924;19;1558;-47
2023/05/26 06:10:52;;;;;;;;;;;;;;;21.08;70.32;100945.69;7393688;19;1472;-47
2023/05/26 06:13:20;;;;;;;;;;;;;;;21.26;70.13;100927.78;7394983;19;1621;-46
2023/05/26 06:15:49;;;;;;;;;;;;;;;21.33;69.29;100924.50;7395391;19;1583;-47
2023/05/26 06:18:17;;;;;;;;;;;;;;;21.46;69.19;100938.53;7395046;19;1875;-47
2023/05/26 06:20:45;;;;;;;;;;;;;;;21.28;70.04;100930.34;7394430;19;1551;-46
2023/05/26 06:23:16;;;;;;;;;;;;;;;21.36;69.50;100943.91;7396311;19;1235;-47
2023/05/26 06:25:44;;;;;;;;;;;;;;;21.28;69.94;100941.09;7395013;19;1614;-48
2023/05/26 06:28:12;;;;;;;;;;;;;;;21.21;70.39;100935.47;7392993;19;1629;-47
2023/05/26 06:30:41;;;;;;;;;;;;;;;21.09;70.27;100936.63;7395486;19;1409;-47
2023/05/26 06:33:09;;;;;;;;;;;;;;;21.10;70.85;100937.47;7391768;19;1819;-47
2023/05/26 06:35:37;;;;;;;;;;;;;;;21.14;70.39;100928.97;7395344;19;1015;-45
2023/05/26 06:38:05;;;;;;;;;;;;;;;21.09;70.82;100925.00;7394388;19;1873;-45
2023/05/26 06:40:36;;;;;;;;;;;;;;;21.12;71.04;100913.97;7397358;19;1523;-45
2023/05/26 06:43:05;;;;;;;;;;;;;;;21.06;71.42;100920.78;7401473;19;1500;-45
2023/05/26 06:45:33;;;;;;;;;;;;;;;21.14;71.30;100938.88;7402366;19;1722;-45
2023/05/26 06:48:01;;;;;;;;;;;;;;;21.05;71.52;100924.47;7402002;19;1738;-45
2023/05/26 06:50:29;;;;;;;;;;;;;;;21.11;71.13;100923.91;7399537;19;1665;-46
2023/05/26 06:52:57;;;;;;;;;;;;;;;21.17;71.26;100925.13;7397525;19;1148;-45
2023/05/26 06:55:26;;;;;;;;;;;;;;;21.09;70.96;100935.78;7401371;19;1734;-45
2023/05/26 06:57:57;;;;;;;;;;;;;;;21.20;70.81;100932.91;7401286;19;1285;-62
2023/05/26 07:00:25;;;;;;;;;;;;;;;21.00;71.83;100934.81;7399300;19;1856;-45
2023/05/26 07:02:53;;;;;;;;;;;;;;;20.97;72.27;100933.25;7401113;19;1546;-46
2023/05/26 07:05:22;;;;;;;;;;;;;;;20.99;72.14;100946.53;7399259;19;1397;-45
2023/05/26 07:07:50;;;;;;;;;;;;;;;21.11;71.46;100942.72;7400506;19;1556;-45
2023/05/26 07:10:18;;;;;;;;;;;;;;;20.81;72.31;100933.84;7399743;19;1797;-45
2023/05/26 07:12:46;;;;;;;;;;;;;;;20.86;72.13;100944.16;7401320;19;1765;-45
2023/05/26 07:15:17;;;;;;;;;;;;;;;20.93;72.53;100950.69;7400329;19;1300;-45
2023/05/26 07:17:46;;;;;;;;;;;;;;;20.92;72.42;100943.59;7400392;19;1631;-46
2023/05/26 07:20:14;;;;;;;;;;;;;;;20.94;71.84;100946.13;7397214;19;1838;-45
2023/05/26 07:22:42;;;;;;;;;;;;;;;21.01;71.81;100955.34;7401711;19;1397;-46
2023/05/26 07:25:11;;;;;;;;;;;;;;;21.06;71.51;100945.81;7399011;19;1492;-46
2023/05/26 07:27:39;;;;;;;;;;;;;;;21.09;71.67;100959.97;7400939;19;1777;-45
2023/05/26 07:30:08;;;;;;;;;;;;;;;21.05;71.52;100943.31;7398245;19;1863;-45
2023/05/26 07:32:39;;;;;;;;;;;;;;;21.13;71.21;100945.25;7402163;19;1813;-45
2023/05/26 07:35:08;;;;;;;;;;;;;;;21.11;71.14;100949.91;7398729;19;1748;-45
2023/05/26 07:37:36;;;;;;;;;;;;;;;21.21;70.85;100945.38;7396152;19;1373;-45
2023/05/26 07:40:05;;;;;;;;;;;;;;;21.40;70.00;100934.53;7397519;19;1854;-45
2023/05/26 07:42:33;;;;;;;;;;;;;;;21.41;70.08;100933.56;7395497;19;1726;-45
2023/05/26 07:45:01;;;;;;;;;;;;;;;21.41;70.26;100941.63;7394783;19;1765;-45
2023/05/26 07:47:31;;;;;;;;;;;;;;;21.33;70.33;100949.59;7397082;19;1729;-45
2023/05/26 07:50:02;;;;;;;;;;;;;;;21.31;70.19;100939.94;7394062;19;1342;-45
2023/05/26 07:52:31;;;;;;;;;;;;;;;21.32;69.65;100942.50;7393491;19;1467;-45
2023/05/26 07:54:59;;;;;;;;;;;;;;;21.35;69.74;100947.59;7395335;19;1523;-45
2023/05/26 07:57:27;;;;;;;;;;;;;;;21.30;69.93;100933.72;7401161;19;961;-45
2023/05/26 07:59:55;;;;;;;;;;;;;;;21.24;70.21;100928.94;7399029;19;1860;-45
2023/05/26 08:02:24;;;;;;;;;;;;;;;21.19;70.52;100931.25;7397253;19;1519;-45
2023/05/26 08:04:52;;;;;;;;;;;;;;;21.14;70.12;100930.81;7399451;19;1691;-46
2023/05/26 08:07:23;;;;;;;;;;;;;;;21.15;70.37;100929.81;7400893;19;1049;-46
2023/05/26 08:09:52;;;;;;;;;;;;;;;21.19;69.67;100934.78;7396905;19;1808;-45
2023/05/26 08:12:20;;;;;;;;;;;;;;;21.23;69.73;100925.41;7399159;19;1737;-45
2023/05/26 08:14:49;;;;;;;;;;;;;;;21.21;69.81;100913.13;7398219;19;1460;-46
2023/05/26 08:17:17;;;;;;;;;;;;;;;21.21;69.91;100921.19;7399526;19;1023;-45
2023/05/26 08:19:46;;;;;;;;;;;;;;;21.22;69.71;100930.94;7398133;19;1932;-46
2023/05/26 08:22:14;;;;;;;;;;;;;;;21.23;69.49;100922.72;7399641;19;1828;-45
2023/05/26 08:24:45;;;;;;;;;;;;;;;21.20;69.59;100919.47;7398554;19;1729;-45
2023/05/26 08:27:13;;;;;;;;;;;;;;;21.19;69.77;100924.00;7399818;19;1049;-45
2023/05/26 08:29:41;;;;;;;;;;;;;;;21.22;69.65;100907.56;7398409;19;1946;-45
2023/05/26 08:32:10;;;;;;;;;;;;;;;21.22;70.03;100909.41;7398761;19;1599;-45
2023/05/26 08:34:38;;;;;;;;;;;;;;;21.27;69.99;100917.91;7398826;19;1712;-46
2023/05/26 08:37:06;;;;;;;;;;;;;;;21.28;69.45;100914.19;7398935;19;1730;-45
2023/05/26 08:39:34;;;;;;;;;;;;;;;21.28;69.34;100922.28;7397157;19;1853;-45
2023/05/26 08:42:08;;;;;;;;;;;;;;;21.30;69.46;100911.38;7397711;19;1479;-45
2023/05/26 08:44:37;;;;;;;;;;;;;;;21.28;69.48;100919.59;7397678;19;1694;-45
2023/05/26 08:47:06;;;;;;;;;;;;;;;21.28;69.36;100918.75;7400385;19;1022;-45
2023/05/26 08:49:37;;;;;;;;;;;;;;;21.29;69.47;100915.91;7397507;19;1927;-45
2023/05/26 08:52:08;;;;;;;;;;;;;;;21.22;69.13;100912.09;7397667;19;1440;-45
2023/05/26 08:54:36;;;;;;;;;;;;;;;21.17;69.19;100907.16;7396593;19;1706;-45
2023/05/26 08:57:07;;;;;;;;;;;;;;;21.17;69.93;100901.78;7400025;19;1026;-45
2023/05/26 08:59:36;;;;;;;;;;;;;;;21.16;69.15;100926.13;7397602;19;2015;-45
2023/05/26 09:02:04;;;;;;;;;;;;;;;21.17;69.53;100906.31;7398668;19;1035;-45
2023/05/26 09:04:33;;;;;;;;;;;;;;;21.16;69.98;100899.25;7397515;19;1121;-45
2023/05/26 09:07:01;;;;;;;;;;;;;;;21.10;69.55;100910.59;7397963;19;1484;-45
2023/05/26 09:09:29;;;;;;;;;;;;;;;21.19;69.17;100905.19;7396371;19;1911;-45
2023/05/26 09:11:58;;;;;;;;;;;;;;;21.36;68.63;100898.16;7398820;19;1729;-45
2023/05/26 09:14:29;;;;;;;;;;;;;;;21.19;69.49;100896.28;7398229;19;1816;-45
2023/05/26 09:17:00;;;;;;;;;;;;;;;21.11;70.20;100918.50;7395990;19;1322;-45
2023/05/26 09:19:29;;;;;;;;;;;;;;;21.18;69.05;100905.31;7397588;19;1861;-46
2023/05/26 09:21:57;;;;;;;;;;;;;;;21.17;70.18;100928.69;7397987;19;1480;-45
2023/05/26 09:24:27;;;;;;;;;;;;;;;21.13;70.38;100895.00;7396945;19;1690;-45
2023/05/26 09:26:55;;;;;;;;;;;;;;;21.14;70.55;100909.31;7398444;19;1209;-45
2023/05/26 09:29:23;;;;;;;;;;;;;;;21.20;69.99;100906.03;7397711;19;1499;-44
2023/05/26 09:31:54;;;;;;;;;;;;;;;21.23;69.69;100895.81;7396005;19;1293;-45
2023/05/26 09:34:23;;;;;;;;;;;;;;;21.23;69.70;100903.06;7396132;19;1664;-44
2023/05/26 09:36:51;;;;;;;;;;;;;;;21.31;70.19;100902.28;7398343;19;1209;-45
2023/05/26 09:39:20;;;;;;;;;;;;;;;21.34;69.93;100907.38;7395994;19;1849;-44
2023/05/26 09:41:48;;;;;;;;;;;;;;;21.27;70.30;100891.00;7396562;19;1634;-45
2023/05/26 09:44:17;;;;;;;;;;;;;;;21.21;70.15;100897.81;7395025;19;1863;-45
2023/05/26 09:46:47;;;;;;;;;;;;;;;21.14;70.55;100901.22;7396146;19;1539;-45
2023/05/26 09:49:18;;;;;;;;;;;;;;;21.14;70.82;100890.47;7396519;19;1431;-45
2023/05/26 09:51:48;;;;;;;;;;;;;;;21.13;70.49;100886.06;7395356;19;1567;-45
2023/05/26 09:54:16;;;;;;;;;;;;;;;21.08;70.88;100881.16;7394831;19;1610;-44
2023/05/26 09:56:48;;;;;;;;;;;;;;;21.06;70.63;100877.75;7392822;19;1348;-45
2023/05/26 09:59:18;;;;;;;;;;;;;;;21.06;70.72;100886.66;7396487;19;1854;-45
2023/05/26 10:01:47;;;;;;;;;;;;;;;21.04;70.65;100883.28;7396200;19;1148;-45
2023/05/26 10:04:18;;;;;;;;;;;;;;;21.05;70.60;100889.53;7396032;19;1224;-45
2023/05/26 10:06:47;;;;;;;;;;;;;;;21.03;70.57;100875.38;7395893;19;1503;-45
2023/05/26 10:09:16;;;;;;;;;;;;;;;20.99;70.30;100872.13;7394482;19;1270;-45
2023/05/26 10:11:46;;;;;;;;;;;;;;;21.02;70.71;100866.44;7396119;19;1283;-45
2023/05/26 10:14:15;;;;;;;;;;;;;;;21.10;70.23;100864.88;7395677;19;1296;-45
2023/05/26 10:16:44;;;;;;;;;;;;;;;21.09;70.39;100871.22;7403549;19;1490;-45
2023/05/26 10:19:12;;;;;;;;;;;;;;;21.08;70.64;100864.19;7402685;19;1850;-45
2023/05/26 10:21:47;;;;;;;;;;;;;;;21.05;70.87;100855.41;7403331;19;1267;-44
2023/05/26 10:24:17;;;;;;;;;;;;;;;21.06;70.85;100849.03;7401783;19;1234;-45
2023/05/26 10:26:50;;;;;;;;;;;;;;;21.11;70.32;100848.59;7400713;19;1168;-45
2023/05/26 10:29:20;;;;;;;;;;;;;;;21.19;69.92;100855.94;7402116;19;1643;-45
2023/05/26 10:31:48;;;;;;;;;;;;;;;21.26;69.70;100841.72;7402535;19;1469;-45
2023/05/26 10:34:17;;;;;;;;;;;;;;;21.10;70.81;100846.91;7401418;19;1446;-45
2023/05/26 10:37:01;;;;;;;;;;;;;;;21.02;71.10;100839.56;7402376;19;1288;-45
2023/05/26 10:39:29;;;;;;;;;;;;;;;21.35;69.74;100844.53;7401504;19;1834;-45
2023/05/26 10:41:58;;;;;;;;;;;;;;;21.67;68.41;100844.09;7402626;19;1614;-44
2023/05/26 10:44:41;;;;;;;;;;;;;;;21.59;68.76;100844.84;7401461;19;1966;-45
2023/05/26 10:47:15;;;;;;;;;;;;;;;21.64;68.44;100837.16;7400839;19;1324;-45
2023/05/26 10:49:43;;;;;;;;;;;;;;;21.63;68.56;100831.94;7401906;19;1535;-45
2023/05/26 10:52:17;;;;;;;;;;;;;;;21.73;67.82;100830.03;7402654;19;1413;-45
2023/05/26 10:54:47;;;;;;;;;;;;;;;21.53;68.71;100825.78;7400273;19;1298;-45
2023/05/26 10:57:30;;;;;;;;;;;;;;;21.35;69.22;100821.16;7400531;19;1100;-45
2023/05/26 10:59:58;;;;;;;;;;;;;;;21.14;70.42;100812.50;7397222;19;1889;-45
2023/05/26 11:02:27;;;;;;;;;;;;;;;21.23;70.06;100809.75;7400863;19;1511;-45
2023/05/26 11:04:55;;;;;;;;;;;;;;;21.33;69.71;100804.34;7402987;19;1717;-45
2023/05/26 11:07:28;;;;;;;;;;;;;;;21.26;69.47;100792.47;7400883;19;1223;-45
2023/05/26 11:09:58;;;;;;;;;;;;;;;21.16;70.17;100789.81;7398419;19;1226;-45
2023/05/26 11:12:26;;;;;;;;;;;;;;;21.36;69.96;100781.66;7399463;19;1460;-45
2023/05/26 11:14:55;;;;;;;;;;;;;;;21.35;69.78;100780.81;7398336;19;1558;-45
2023/05/26 11:17:23;;;;;;;;;;;;;;;21.14;70.01;100767.63;7396357;19;1939;-45
2023/05/26 11:19:55;;;;;;;;;;;;;;;21.05;70.65;100773.91;7396662;19;1855;-45
2023/05/26 11:22:27;;;;;;;;;;;;;;;21.05;70.73;100771.22;7398417;19;1622;-45
2023/05/26 11:24:57;;;;;;;;;;;;;;;20.99;70.41;100777.16;7394855;19;1800;-45
2023/05/26 11:27:27;;;;;;;;;;;;;;;21.00;70.69;100777.03;7396404;19;1223;-45
2023/05/26 11:30:02;;;;;;;;;;;;;;;21.01;70.95;100773.34;7396945;19;1843;-45
2023/05/26 11:32:36;;;;;;;;;;;;;;;21.02;70.80;100761.59;7397050;19;1849;-45
2023/05/26 11:35:04;;;;;;;;;;;;;;;21.00;70.99;100760.91;7397920;19;1633;-45
2023/05/26 11:37:36;;;;;;;;;;;;;;;20.99;70.95;100761.91;7402686;19;1472;-45
2023/05/26 11:40:04;;;;;;;;;;;;;;;21.05;70.70;100761.31;7402167;19;1839;-44
2023/05/26 11:42:32;;;;;;;;;;;;;;;21.12;70.28;100760.72;7401315;19;1594;-45
2023/05/26 11:45:01;;;;;;;;;;;;;;;21.08;70.74;100757.47;7401634;19;1877;-44
2023/05/26 11:47:29;;;;;;;;;;;;;;;21.09;70.44;100758.31;7400167;19;1973;-45
2023/05/26 11:49:58;;;;;;;;;;;;;;;21.08;70.77;100751.25;7398132;19;1658;-50
2023/05/26 11:52:26;;;;;;;;;;;;;;;21.05;70.60;100747.03;7399714;19;1305;-50
2023/05/26 11:54:57;;;;;;;;;;;;;;;20.99;70.62;100747.59;7398387;19;1334;-49
2023/05/26 11:57:30;;;;;;;;;;;;;;;20.91;70.92;100744.81;7399663;19;1100;-48
2023/05/26 11:59:59;;;;;;;;;;;;;;;21.06;70.81;100749.53;7399375;19;1856;-49
2023/05/26 12:02:27;;;;;;;;;;;;;;;20.96;70.93;100746.06;7400272;19;1510;-49
2023/05/26 12:04:55;;;;;;;;;;;;;;;20.94;71.20;100726.53;7397275;19;1489;-49
2023/05/26 12:07:30;;;;;;;;;;;;;;;21.01;71.14;100735.72;7399072;19;1027;-49
2023/05/26 12:10:10;;;;;;;;;;;;;;;21.01;70.96;100726.81;7397524;19;1278;-50
2023/05/26 12:12:51;;;;;;;;;;;;;;;21.07;70.58;100739.66;7399824;19;1420;-49
2023/05/26 12:15:22;;;;;;;;;;;;;;;21.01;70.86;100711.53;7399491;19;1526;-49
2023/05/26 12:17:52;;;;;;;;;;;;;;;20.99;70.51;100716.19;7397984;19;1559;-49
2023/05/26 12:20:21;;;;;;;;;;;;;;;20.97;70.70;100707.44;7397710;19;1870;-49
2023/05/26 12:22:51;;;;;;;;;;;;;;;20.93;70.83;100711.44;7399423;19;1626;-49
2023/05/26 12:25:26;;;;;;;;;;;;;;;20.95;70.74;100714.81;7396425;19;1563;-46
2023/05/26 12:27:54;;;;;;;;;;;;;;;20.88;71.52;100691.38;7396969;19;1722;-46
2023/05/26 12:30:24;;;;;;;;;;;;;;;20.93;71.05;100697.13;7399193;19;1722;-46
2023/05/26 12:32:52;;;;;;;;;;;;;;;20.84;71.27;100701.56;7399709;19;1594;-46
2023/05/26 12:35:20;;;;;;;;;;;;;;;20.81;71.20;100691.97;7399633;19;1522;-46
2023/05/26 12:37:49;;;;;;;;;;;;;;;20.80;70.89;100687.56;7393217;19;1556;-49
2023/05/26 12:40:17;;;;;;;;;;;;;;;20.83;70.56;100681.03;7397875;19;1863;-49
2023/05/26 12:42:48;;;;;;;;;;;;;;;20.85;70.95;100687.97;7398075;19;1488;-50
2023/05/26 12:45:16;;;;;;;;;;;;;;;20.90;70.56;100684.84;7398279;19;1506;-49
2023/05/26 12:47:44;;;;;;;;;;;;;;;20.96;70.64;100689.59;7397748;19;1514;-49
2023/05/26 12:50:13;;;;;;;;;;;;;;;21.00;70.08;100685.63;7399574;19;1254;-49
2023/05/26 12:52:41;;;;;;;;;;;;;;;20.98;70.35;100671.47;7399011;19;1848;-50
2023/05/26 12:55:10;;;;;;;;;;;;;;;20.94;70.53;100680.84;7397378;19;1783;-49
2023/05/26 12:57:39;;;;;;;;;;;;;;;20.97;70.46;100675.19;7397164;19;1848;-49
2023/05/26 13:00:11;;;;;;;;;;;;;;;20.97;70.53;100669.81;7397674;19;1842;-49